sensor_id;sensor_type;location;lat;lon;timestamp;temperature;humidity
65378;SHT31;51982;51.042;13.806;2023-10-31T00:00:18;16.87;84.57
65378;SHT31;51982;51.042;13.806;2023-10-31T00:02:43;16.84;84.66
65378;SHT31;51982;51.042;13.806;2023-10-31T00:05:08;16.81;84.58
65378;SHT31;51982;51.042;13.806;2023-10-31T00:07:33;16.81;84.53
65378;SHT31;51982;51.042;13.806;2023-10-31T00:09:59;16.79;84.55
65378;SHT31;51982;51.042;13.806;2023-10-31T00:12:24;16.79;84.58
65378;SHT31;51982;51.042;13.806;2023-10-31T00:14:49;16.81;84.57
65378;SHT31;51982;51.042;13.806;2023-10-31T00:17:15;16.81;84.59
65378;SHT31;51982;51.042;13.806;2023-10-31T00:19:40;16.84;84.68
65378;SHT31;51982;51.042;13.806;2023-10-31T00:22:05;16.84;84.74
65378;SHT31;51982;51.042;13.806;2023-10-31T00:24:31;16.84;84.73
65378;SHT31;51982;51.042;13.806;2023-10-31T00:26:57;16.85;84.78
65378;SHT31;51982;51.042;13.806;2023-10-31T00:29:22;16.85;84.82
65378;SHT31;51982;51.042;13.806;2023-10-31T00:31:48;16.79;84.86
65378;SHT31;51982;51.042;13.806;2023-10-31T00:34:13;16.79;84.87
65378;SHT31;51982;51.042;13.806;2023-10-31T00:36:38;16.79;84.90
65378;SHT31;51982;51.042;13.806;2023-10-31T00:39:04;16.79;84.89
65378;SHT31;51982;51.042;13.806;2023-10-31T00:41:30;16.78;84.91
65378;SHT31;51982;51.042;13.806;2023-10-31T00:43:55;16.78;84.88
65378;SHT31;51982;51.042;13.806;2023-10-31T00:46:20;16.77;84.92
65378;SHT31;51982;51.042;13.806;2023-10-31T00:48:45;16.79;85.01
65378;SHT31;51982;51.042;13.806;2023-10-31T00:51:11;16.78;84.98
65378;SHT31;51982;51.042;13.806;2023-10-31T00:53:36;16.79;85.07
65378;SHT31;51982;51.042;13.806;2023-10-31T00:56:02;16.78;85.09
65378;SHT31;51982;51.042;13.806;2023-10-31T00:58:27;16.74;85.06
65378;SHT31;51982;51.042;13.806;2023-10-31T01:00:52;16.71;85.15
65378;SHT31;51982;51.042;13.806;2023-10-31T01:03:18;16.68;85.12
65378;SHT31;51982;51.042;13.806;2023-10-31T01:05:43;16.68;85.17
65378;SHT31;51982;51.042;13.806;2023-10-31T01:08:08;16.67;85.16
65378;SHT31;51982;51.042;13.806;2023-10-31T01:10:33;16.65;85.21
65378;SHT31;51982;51.042;13.806;2023-10-31T01:12:58;16.64;85.23
65378;SHT31;51982;51.042;13.806;2023-10-31T01:15:24;16.63;85.24
65378;SHT31;51982;51.042;13.806;2023-10-31T01:17:49;16.63;85.24
65378;SHT31;51982;51.042;13.806;2023-10-31T01:20:14;16.64;85.29
65378;SHT31;51982;51.042;13.806;2023-10-31T01:22:39;16.63;85.25
65378;SHT31;51982;51.042;13.806;2023-10-31T01:25:05;16.61;85.31
65378;SHT31;51982;51.042;13.806;2023-10-31T01:27:30;16.63;85.34
65378;SHT31;51982;51.042;13.806;2023-10-31T01:29:56;16.63;85.34
65378;SHT31;51982;51.042;13.806;2023-10-31T01:32:21;16.61;85.36
65378;SHT31;51982;51.042;13.806;2023-10-31T01:34:46;16.58;85.38
65378;SHT31;51982;51.042;13.806;2023-10-31T01:37:11;16.60;85.43
65378;SHT31;51982;51.042;13.806;2023-10-31T01:39:38;16.61;85.44
65378;SHT31;51982;51.042;13.806;2023-10-31T01:42:04;16.61;85.44
65378;SHT31;51982;51.042;13.806;2023-10-31T01:44:29;16.58;85.38
65378;SHT31;51982;51.042;13.806;2023-10-31T01:46:55;16.60;85.38
65378;SHT31;51982;51.042;13.806;2023-10-31T01:49:20;16.57;85.39
65378;SHT31;51982;51.042;13.806;2023-10-31T01:51:46;16.58;85.43
65378;SHT31;51982;51.042;13.806;2023-10-31T01:54:12;16.58;85.42
65378;SHT31;51982;51.042;13.806;2023-10-31T01:56:38;16.57;85.46
65378;SHT31;51982;51.042;13.806;2023-10-31T01:59:05;16.56;85.50
65378;SHT31;51982;51.042;13.806;2023-10-31T02:01:32;16.53;85.52
65378;SHT31;51982;51.042;13.806;2023-10-31T02:03:57;16.51;85.45
65378;SHT31;51982;51.042;13.806;2023-10-31T02:06:23;16.51;85.49
65378;SHT31;51982;51.042;13.806;2023-10-31T02:08:49;16.51;85.54
65378;SHT31;51982;51.042;13.806;2023-10-31T02:11:14;16.50;85.54
65378;SHT31;51982;51.042;13.806;2023-10-31T02:13:39;16.48;85.56
65378;SHT31;51982;51.042;13.806;2023-10-31T02:16:05;16.48;85.60
65378;SHT31;51982;51.042;13.806;2023-10-31T02:18:30;16.51;85.63
65378;SHT31;51982;51.042;13.806;2023-10-31T02:20:59;16.51;85.64
65378;SHT31;51982;51.042;13.806;2023-10-31T02:23:24;16.50;85.68
65378;SHT31;51982;51.042;13.806;2023-10-31T02:25:50;16.53;85.58
65378;SHT31;51982;51.042;13.806;2023-10-31T02:28:15;16.51;85.56
65378;SHT31;51982;51.042;13.806;2023-10-31T02:30:41;16.51;85.65
65378;SHT31;51982;51.042;13.806;2023-10-31T02:33:06;16.48;85.77
65378;SHT31;51982;51.042;13.806;2023-10-31T02:35:31;16.50;85.76
65378;SHT31;51982;51.042;13.806;2023-10-31T02:37:57;16.46;85.73
65378;SHT31;51982;51.042;13.806;2023-10-31T02:40:23;16.51;85.73
65378;SHT31;51982;51.042;13.806;2023-10-31T02:42:48;16.50;85.76
65378;SHT31;51982;51.042;13.806;2023-10-31T02:45:13;16.46;85.87
65378;SHT31;51982;51.042;13.806;2023-10-31T02:47:39;16.48;85.97
65378;SHT31;51982;51.042;13.806;2023-10-31T02:50:05;16.47;85.99
65378;SHT31;51982;51.042;13.806;2023-10-31T02:52:31;16.46;86.02
65378;SHT31;51982;51.042;13.806;2023-10-31T02:54:56;16.44;85.99
65378;SHT31;51982;51.042;13.806;2023-10-31T02:57:22;16.44;85.97
65378;SHT31;51982;51.042;13.806;2023-10-31T02:59:47;16.44;86.08
65378;SHT31;51982;51.042;13.806;2023-10-31T03:02:14;16.41;86.09
65378;SHT31;51982;51.042;13.806;2023-10-31T03:04:39;16.43;86.04
65378;SHT31;51982;51.042;13.806;2023-10-31T03:07:05;16.40;85.89
65378;SHT31;51982;51.042;13.806;2023-10-31T03:09:30;16.40;85.85
65378;SHT31;51982;51.042;13.806;2023-10-31T03:11:55;16.40;85.92
65378;SHT31;51982;51.042;13.806;2023-10-31T03:14:20;16.43;85.97
65378;SHT31;51982;51.042;13.806;2023-10-31T03:16:46;16.41;86.02
65378;SHT31;51982;51.042;13.806;2023-10-31T03:19:11;16.44;85.98
65378;SHT31;51982;51.042;13.806;2023-10-31T03:21:36;16.41;85.96
65378;SHT31;51982;51.042;13.806;2023-10-31T03:24:02;16.43;85.99
65378;SHT31;51982;51.042;13.806;2023-10-31T03:26:30;16.37;86.04
65378;SHT31;51982;51.042;13.806;2023-10-31T03:28:55;16.38;86.01
65378;SHT31;51982;51.042;13.806;2023-10-31T03:31:23;16.34;85.92
65378;SHT31;51982;51.042;13.806;2023-10-31T03:33:48;16.38;86.04
65378;SHT31;51982;51.042;13.806;2023-10-31T03:36:14;16.36;86.01
65378;SHT31;51982;51.042;13.806;2023-10-31T03:38:39;16.33;85.92
65378;SHT31;51982;51.042;13.806;2023-10-31T03:41:06;16.33;86.01
65378;SHT31;51982;51.042;13.806;2023-10-31T03:43:32;16.28;85.95
65378;SHT31;51982;51.042;13.806;2023-10-31T03:45:58;16.28;85.96
65378;SHT31;51982;51.042;13.806;2023-10-31T03:48:23;16.31;85.97
65378;SHT31;51982;51.042;13.806;2023-10-31T03:50:49;16.31;85.95
65378;SHT31;51982;51.042;13.806;2023-10-31T03:53:15;16.28;86.00
65378;SHT31;51982;51.042;13.806;2023-10-31T03:55:40;16.26;85.84
65378;SHT31;51982;51.042;13.806;2023-10-31T03:58:06;16.24;85.66
65378;SHT31;51982;51.042;13.806;2023-10-31T04:00:31;16.26;85.63
65378;SHT31;51982;51.042;13.806;2023-10-31T04:02:57;16.20;85.52
65378;SHT31;51982;51.042;13.806;2023-10-31T04:05:22;16.17;85.43
65378;SHT31;51982;51.042;13.806;2023-10-31T04:07:48;16.18;85.49
65378;SHT31;51982;51.042;13.806;2023-10-31T04:10:14;16.16;85.49
65378;SHT31;51982;51.042;13.806;2023-10-31T04:12:39;16.13;85.45
65378;SHT31;51982;51.042;13.806;2023-10-31T04:15:05;16.13;85.46
65378;SHT31;51982;51.042;13.806;2023-10-31T04:17:30;16.14;85.49
65378;SHT31;51982;51.042;13.806;2023-10-31T04:19:56;16.13;85.47
65378;SHT31;51982;51.042;13.806;2023-10-31T04:22:21;16.14;85.51
65378;SHT31;51982;51.042;13.806;2023-10-31T04:24:46;16.14;85.35
65378;SHT31;51982;51.042;13.806;2023-10-31T04:27:11;16.13;85.29
65378;SHT31;51982;51.042;13.806;2023-10-31T04:29:37;16.13;85.33
65378;SHT31;51982;51.042;13.806;2023-10-31T04:32:02;16.10;85.29
65378;SHT31;51982;51.042;13.806;2023-10-31T04:34:28;16.12;85.33
65378;SHT31;51982;51.042;13.806;2023-10-31T04:36:53;16.13;85.35
65378;SHT31;51982;51.042;13.806;2023-10-31T04:39:19;16.10;85.22
65378;SHT31;51982;51.042;13.806;2023-10-31T04:41:44;16.09;85.33
65378;SHT31;51982;51.042;13.806;2023-10-31T04:44:09;16.10;85.32
65378;SHT31;51982;51.042;13.806;2023-10-31T04:46:34;16.10;85.40
65378;SHT31;51982;51.042;13.806;2023-10-31T04:49:00;16.12;85.32
65378;SHT31;51982;51.042;13.806;2023-10-31T04:51:25;16.09;85.28
65378;SHT31;51982;51.042;13.806;2023-10-31T04:53:50;16.06;85.24
65378;SHT31;51982;51.042;13.806;2023-10-31T04:56:16;16.07;85.21
65378;SHT31;51982;51.042;13.806;2023-10-31T04:58:42;16.07;85.16
65378;SHT31;51982;51.042;13.806;2023-10-31T05:01:12;16.06;85.20
65378;SHT31;51982;51.042;13.806;2023-10-31T05:03:38;16.06;85.13
65378;SHT31;51982;51.042;13.806;2023-10-31T05:06:04;16.06;85.22
65378;SHT31;51982;51.042;13.806;2023-10-31T05:08:30;16.09;85.29
65378;SHT31;51982;51.042;13.806;2023-10-31T05:10:55;16.09;85.34
65378;SHT31;51982;51.042;13.806;2023-10-31T05:13:21;16.07;85.34
65378;SHT31;51982;51.042;13.806;2023-10-31T05:15:46;16.06;85.24
65378;SHT31;51982;51.042;13.806;2023-10-31T05:18:11;16.02;85.36
65378;SHT31;51982;51.042;13.806;2023-10-31T05:20:36;16.03;85.22
65378;SHT31;51982;51.042;13.806;2023-10-31T05:23:02;16.02;85.24
65378;SHT31;51982;51.042;13.806;2023-10-31T05:25:28;16.05;85.35
65378;SHT31;51982;51.042;13.806;2023-10-31T05:27:53;16.06;85.40
65378;SHT31;51982;51.042;13.806;2023-10-31T05:30:18;16.03;85.36
65378;SHT31;51982;51.042;13.806;2023-10-31T05:32:43;16.06;85.39
65378;SHT31;51982;51.042;13.806;2023-10-31T05:35:10;16.03;85.42
65378;SHT31;51982;51.042;13.806;2023-10-31T05:37:35;16.02;85.33
65378;SHT31;51982;51.042;13.806;2023-10-31T05:40:00;16.00;85.22
65378;SHT31;51982;51.042;13.806;2023-10-31T05:42:26;16.00;85.27
65378;SHT31;51982;51.042;13.806;2023-10-31T05:44:52;15.97;85.20
65378;SHT31;51982;51.042;13.806;2023-10-31T05:47:18;15.96;85.06
65378;SHT31;51982;51.042;13.806;2023-10-31T05:49:43;15.96;85.09
65378;SHT31;51982;51.042;13.806;2023-10-31T05:52:09;15.95;84.98
65378;SHT31;51982;51.042;13.806;2023-10-31T05:54:34;15.92;84.93
65378;SHT31;51982;51.042;13.806;2023-10-31T05:56:59;15.93;84.80
65378;SHT31;51982;51.042;13.806;2023-10-31T05:59:25;15.97;84.91
65378;SHT31;51982;51.042;13.806;2023-10-31T06:01:50;15.95;84.91
65378;SHT31;51982;51.042;13.806;2023-10-31T06:04:15;15.92;84.91
65378;SHT31;51982;51.042;13.806;2023-10-31T06:06:41;15.95;84.98
65378;SHT31;51982;51.042;13.806;2023-10-31T06:09:06;15.95;85.04
65378;SHT31;51982;51.042;13.806;2023-10-31T06:11:31;15.92;84.92
65378;SHT31;51982;51.042;13.806;2023-10-31T06:13:58;15.93;84.89
65378;SHT31;51982;51.042;13.806;2023-10-31T06:16:24;15.93;84.94
65378;SHT31;51982;51.042;13.806;2023-10-31T06:18:49;15.92;84.84
65378;SHT31;51982;51.042;13.806;2023-10-31T06:21:15;15.89;84.64
65378;SHT31;51982;51.042;13.806;2023-10-31T06:23:40;15.89;84.63
65378;SHT31;51982;51.042;13.806;2023-10-31T06:26:07;15.82;84.52
65378;SHT31;51982;51.042;13.806;2023-10-31T06:28:33;15.85;84.43
65378;SHT31;51982;51.042;13.806;2023-10-31T06:31:00;15.83;84.50
65378;SHT31;51982;51.042;13.806;2023-10-31T06:33:26;15.79;84.30
65378;SHT31;51982;51.042;13.806;2023-10-31T06:35:51;15.83;84.30
65378;SHT31;51982;51.042;13.806;2023-10-31T06:38:18;15.83;84.28
65378;SHT31;51982;51.042;13.806;2023-10-31T06:40:44;15.82;84.18
65378;SHT31;51982;51.042;13.806;2023-10-31T06:43:09;15.81;83.99
65378;SHT31;51982;51.042;13.806;2023-10-31T06:45:35;15.81;83.99
65378;SHT31;51982;51.042;13.806;2023-10-31T06:48:00;15.85;83.89
65378;SHT31;51982;51.042;13.806;2023-10-31T06:50:25;15.79;83.76
65378;SHT31;51982;51.042;13.806;2023-10-31T06:52:51;15.81;83.76
65378;SHT31;51982;51.042;13.806;2023-10-31T06:55:19;15.75;83.90
65378;SHT31;51982;51.042;13.806;2023-10-31T06:57:45;15.79;83.73
65378;SHT31;51982;51.042;13.806;2023-10-31T07:00:13;15.79;83.75
65378;SHT31;51982;51.042;13.806;2023-10-31T07:02:38;15.79;83.79
65378;SHT31;51982;51.042;13.806;2023-10-31T07:05:04;15.75;83.85
65378;SHT31;51982;51.042;13.806;2023-10-31T07:07:37;15.73;83.88
65378;SHT31;51982;51.042;13.806;2023-10-31T07:10:02;15.78;83.80
65378;SHT31;51982;51.042;13.806;2023-10-31T07:12:28;15.73;83.59
65378;SHT31;51982;51.042;13.806;2023-10-31T07:14:53;15.78;83.57
65378;SHT31;51982;51.042;13.806;2023-10-31T07:17:18;15.72;83.31
65378;SHT31;51982;51.042;13.806;2023-10-31T07:19:43;15.73;83.12
65378;SHT31;51982;51.042;13.806;2023-10-31T07:22:09;15.76;83.13
65378;SHT31;51982;51.042;13.806;2023-10-31T07:24:34;15.75;83.01
65378;SHT31;51982;51.042;13.806;2023-10-31T07:27:01;15.75;82.96
65378;SHT31;51982;51.042;13.806;2023-10-31T07:29:29;15.75;83.07
65378;SHT31;51982;51.042;13.806;2023-10-31T07:31:54;15.79;83.11
65378;SHT31;51982;51.042;13.806;2023-10-31T07:34:19;15.81;82.95
65378;SHT31;51982;51.042;13.806;2023-10-31T07:36:45;15.85;83.07
65378;SHT31;51982;51.042;13.806;2023-10-31T07:39:10;15.89;82.97
65378;SHT31;51982;51.042;13.806;2023-10-31T07:41:37;15.87;82.78
65378;SHT31;51982;51.042;13.806;2023-10-31T07:44:04;15.90;82.60
65378;SHT31;51982;51.042;13.806;2023-10-31T07:46:29;15.89;82.42
65378;SHT31;51982;51.042;13.806;2023-10-31T07:48:54;15.87;81.99
65378;SHT31;51982;51.042;13.806;2023-10-31T07:51:20;15.90;82.04
65378;SHT31;51982;51.042;13.806;2023-10-31T07:53:45;15.87;82.04
65378;SHT31;51982;51.042;13.806;2023-10-31T07:56:18;15.81;82.08
65378;SHT31;51982;51.042;13.806;2023-10-31T07:58:49;15.89;81.20
65378;SHT31;51982;51.042;13.806;2023-10-31T08:01:15;15.96;81.48
65378;SHT31;51982;51.042;13.806;2023-10-31T08:03:41;15.97;81.41
65378;SHT31;51982;51.042;13.806;2023-10-31T08:06:06;15.96;80.74
65378;SHT31;51982;51.042;13.806;2023-10-31T08:08:33;16.02;80.28
65378;SHT31;51982;51.042;13.806;2023-10-31T08:10:59;16.00;80.46
65378;SHT31;51982;51.042;13.806;2023-10-31T08:13:24;16.00;79.84
65378;SHT31;51982;51.042;13.806;2023-10-31T08:15:50;16.03;80.08
65378;SHT31;51982;51.042;13.806;2023-10-31T08:18:15;16.05;79.83
65378;SHT31;51982;51.042;13.806;2023-10-31T08:20:40;16.02;79.71
65378;SHT31;51982;51.042;13.806;2023-10-31T08:23:06;16.06;79.87
65378;SHT31;51982;51.042;13.806;2023-10-31T08:25:31;16.09;79.89
65378;SHT31;51982;51.042;13.806;2023-10-31T08:27:56;16.05;78.59
65378;SHT31;51982;51.042;13.806;2023-10-31T08:30:22;16.00;78.59
65378;SHT31;51982;51.042;13.806;2023-10-31T08:32:47;16.05;78.82
65378;SHT31;51982;51.042;13.806;2023-10-31T08:35:12;15.93;77.53
65378;SHT31;51982;51.042;13.806;2023-10-31T08:37:37;15.93;77.56
65378;SHT31;51982;51.042;13.806;2023-10-31T08:40:03;15.97;77.86
65378;SHT31;51982;51.042;13.806;2023-10-31T08:42:29;15.93;77.64
65378;SHT31;51982;51.042;13.806;2023-10-31T08:44:55;15.95;78.14
65378;SHT31;51982;51.042;13.806;2023-10-31T08:47:20;15.93;77.53
65378;SHT31;51982;51.042;13.806;2023-10-31T08:49:45;15.96;77.57
65378;SHT31;51982;51.042;13.806;2023-10-31T08:52:11;16.00;77.37
65378;SHT31;51982;51.042;13.806;2023-10-31T08:54:36;16.05;77.65
65378;SHT31;51982;51.042;13.806;2023-10-31T08:57:01;16.10;77.72
65378;SHT31;51982;51.042;13.806;2023-10-31T08:59:26;16.06;77.09
65378;SHT31;51982;51.042;13.806;2023-10-31T09:01:52;16.03;77.18
65378;SHT31;51982;51.042;13.806;2023-10-31T09:04:17;16.06;77.11
65378;SHT31;51982;51.042;13.806;2023-10-31T09:06:42;16.06;77.26
65378;SHT31;51982;51.042;13.806;2023-10-31T09:09:08;16.03;76.42
65378;SHT31;51982;51.042;13.806;2023-10-31T09:11:35;16.09;76.91
65378;SHT31;51982;51.042;13.806;2023-10-31T09:14:00;16.18;77.18
65378;SHT31;51982;51.042;13.806;2023-10-31T09:16:25;16.16;76.55
65378;SHT31;51982;51.042;13.806;2023-10-31T09:18:51;16.21;77.03
65378;SHT31;51982;51.042;13.806;2023-10-31T09:21:17;16.33;77.22
65378;SHT31;51982;51.042;13.806;2023-10-31T09:23:42;16.37;77.04
65378;SHT31;51982;51.042;13.806;2023-10-31T09:26:08;16.36;77.11
65378;SHT31;51982;51.042;13.806;2023-10-31T09:28:33;16.44;77.61
65378;SHT31;51982;51.042;13.806;2023-10-31T09:30:58;16.44;77.32
65378;SHT31;51982;51.042;13.806;2023-10-31T09:33:26;16.44;77.19
65378;SHT31;51982;51.042;13.806;2023-10-31T09:35:51;16.38;76.86
65378;SHT31;51982;51.042;13.806;2023-10-31T09:38:16;16.40;77.29
65378;SHT31;51982;51.042;13.806;2023-10-31T09:40:41;16.47;77.27
65378;SHT31;51982;51.042;13.806;2023-10-31T09:43:07;16.47;77.28
65378;SHT31;51982;51.042;13.806;2023-10-31T09:45:32;16.46;77.37
65378;SHT31;51982;51.042;13.806;2023-10-31T09:47:59;16.28;76.84
65378;SHT31;51982;51.042;13.806;2023-10-31T09:50:26;16.30;77.06
65378;SHT31;51982;51.042;13.806;2023-10-31T09:52:52;16.23;77.11
65378;SHT31;51982;51.042;13.806;2023-10-31T09:55:18;16.21;77.09
65378;SHT31;51982;51.042;13.806;2023-10-31T09:57:44;16.16;76.97
65378;SHT31;51982;51.042;13.806;2023-10-31T10:00:10;16.12;76.99
65378;SHT31;51982;51.042;13.806;2023-10-31T10:02:36;16.12;77.70
65378;SHT31;51982;51.042;13.806;2023-10-31T10:05:01;16.09;78.42
65378;SHT31;51982;51.042;13.806;2023-10-31T10:07:27;16.06;77.38
65378;SHT31;51982;51.042;13.806;2023-10-31T10:09:52;16.07;77.49
65378;SHT31;51982;51.042;13.806;2023-10-31T10:12:17;16.06;77.55
65378;SHT31;51982;51.042;13.806;2023-10-31T10:14:46;16.12;77.96
65378;SHT31;51982;51.042;13.806;2023-10-31T10:17:21;16.16;78.30
65378;SHT31;51982;51.042;13.806;2023-10-31T10:19:46;16.20;77.56
65378;SHT31;51982;51.042;13.806;2023-10-31T10:22:12;16.24;77.05
65378;SHT31;51982;51.042;13.806;2023-10-31T10:24:40;16.28;77.25
65378;SHT31;51982;51.042;13.806;2023-10-31T10:27:07;16.31;77.37
65378;SHT31;51982;51.042;13.806;2023-10-31T10:29:33;16.34;77.01
65378;SHT31;51982;51.042;13.806;2023-10-31T10:31:58;16.31;75.74
65378;SHT31;51982;51.042;13.806;2023-10-31T10:34:24;16.38;76.39
65378;SHT31;51982;51.042;13.806;2023-10-31T10:36:49;16.36;75.63
65378;SHT31;51982;51.042;13.806;2023-10-31T10:39:18;16.40;76.11
65378;SHT31;51982;51.042;13.806;2023-10-31T10:41:46;16.47;75.89
65378;SHT31;51982;51.042;13.806;2023-10-31T10:44:12;16.48;77.00
65378;SHT31;51982;51.042;13.806;2023-10-31T10:46:39;16.53;76.19
65378;SHT31;51982;51.042;13.806;2023-10-31T10:49:06;16.54;75.80
65378;SHT31;51982;51.042;13.806;2023-10-31T10:51:45;16.50;75.51
65378;SHT31;51982;51.042;13.806;2023-10-31T10:54:19;16.53;75.79
65378;SHT31;51982;51.042;13.806;2023-10-31T10:56:54;16.51;75.28
65378;SHT31;51982;51.042;13.806;2023-10-31T10:59:39;16.57;75.57
65378;SHT31;51982;51.042;13.806;2023-10-31T11:02:06;16.57;74.91
65378;SHT31;51982;51.042;13.806;2023-10-31T11:04:32;16.60;75.96
65378;SHT31;51982;51.042;13.806;2023-10-31T11:06:58;16.67;75.71
65378;SHT31;51982;51.042;13.806;2023-10-31T11:09:24;16.64;75.24
65378;SHT31;51982;51.042;13.806;2023-10-31T11:11:50;16.63;75.29
65378;SHT31;51982;51.042;13.806;2023-10-31T11:14:19;16.57;74.92
65378;SHT31;51982;51.042;13.806;2023-10-31T11:16:48;16.57;75.21
65378;SHT31;51982;51.042;13.806;2023-10-31T11:19:16;16.56;74.96
65378;SHT31;51982;51.042;13.806;2023-10-31T11:22:04;16.53;74.77
65378;SHT31;51982;51.042;13.806;2023-10-31T11:24:36;16.65;76.24
65378;SHT31;51982;51.042;13.806;2023-10-31T11:27:03;16.65;74.83
65378;SHT31;51982;51.042;13.806;2023-10-31T11:29:30;16.67;74.99
65378;SHT31;51982;51.042;13.806;2023-10-31T11:31:56;16.68;75.07
65378;SHT31;51982;51.042;13.806;2023-10-31T11:34:22;16.58;73.93
65378;SHT31;51982;51.042;13.806;2023-10-31T11:36:47;16.67;74.80
65378;SHT31;51982;51.042;13.806;2023-10-31T11:39:15;16.65;74.34
65378;SHT31;51982;51.042;13.806;2023-10-31T11:42:25;16.78;75.70
65378;SHT31;51982;51.042;13.806;2023-10-31T11:44:56;16.77;77.33
65378;SHT31;51982;51.042;13.806;2023-10-31T11:47:25;16.84;75.81
65378;SHT31;51982;51.042;13.806;2023-10-31T11:49:55;16.82;76.14
65378;SHT31;51982;51.042;13.806;2023-10-31T11:52:39;16.92;75.68
65378;SHT31;51982;51.042;13.806;2023-10-31T11:55:29;16.98;75.22
65378;SHT31;51982;51.042;13.806;2023-10-31T11:57:57;16.92;74.18
65378;SHT31;51982;51.042;13.806;2023-10-31T12:00:23;16.82;73.39
65378;SHT31;51982;51.042;13.806;2023-10-31T12:02:59;16.99;77.61
65378;SHT31;51982;51.042;13.806;2023-10-31T12:05:25;16.85;73.41
65378;SHT31;51982;51.042;13.806;2023-10-31T12:08:10;16.82;73.06
65378;SHT31;51982;51.042;13.806;2023-10-31T12:10:35;16.79;73.88
65378;SHT31;51982;51.042;13.806;2023-10-31T12:13:00;16.81;73.66
65378;SHT31;51982;51.042;13.806;2023-10-31T12:15:26;16.79;73.50
65378;SHT31;51982;51.042;13.806;2023-10-31T12:17:51;16.75;73.40
65378;SHT31;51982;51.042;13.806;2023-10-31T12:20:16;16.75;73.58
65378;SHT31;51982;51.042;13.806;2023-10-31T12:22:43;16.75;73.16
65378;SHT31;51982;51.042;13.806;2023-10-31T12:25:09;16.75;73.13
65378;SHT31;51982;51.042;13.806;2023-10-31T12:27:47;16.69;72.73
65378;SHT31;51982;51.042;13.806;2023-10-31T12:30:16;16.74;73.03
65378;SHT31;51982;51.042;13.806;2023-10-31T12:32:42;16.68;72.86
65378;SHT31;51982;51.042;13.806;2023-10-31T12:35:11;16.65;72.97
65378;SHT31;51982;51.042;13.806;2023-10-31T12:37:44;16.64;72.95
65378;SHT31;51982;51.042;13.806;2023-10-31T12:40:11;16.67;72.92
65378;SHT31;51982;51.042;13.806;2023-10-31T12:42:37;16.67;73.08
65378;SHT31;51982;51.042;13.806;2023-10-31T12:45:03;16.67;73.09
65378;SHT31;51982;51.042;13.806;2023-10-31T12:47:29;16.69;73.27
65378;SHT31;51982;51.042;13.806;2023-10-31T12:50:08;16.64;73.33
65378;SHT31;51982;51.042;13.806;2023-10-31T12:52:54;16.67;73.05
65378;SHT31;51982;51.042;13.806;2023-10-31T12:55:21;16.65;73.49
65378;SHT31;51982;51.042;13.806;2023-10-31T12:57:47;16.65;73.54
65378;SHT31;51982;51.042;13.806;2023-10-31T13:00:17;16.64;73.43
65378;SHT31;51982;51.042;13.806;2023-10-31T13:02:49;16.60;73.36
65378;SHT31;51982;51.042;13.806;2023-10-31T13:05:15;16.56;73.39
65378;SHT31;51982;51.042;13.806;2023-10-31T13:07:50;16.57;73.45
65378;SHT31;51982;51.042;13.806;2023-10-31T13:10:17;16.57;73.46
65378;SHT31;51982;51.042;13.806;2023-10-31T13:12:49;16.56;73.45
65378;SHT31;51982;51.042;13.806;2023-10-31T13:15:15;16.57;73.52
65378;SHT31;51982;51.042;13.806;2023-10-31T13:17:41;16.56;73.44
65378;SHT31;51982;51.042;13.806;2023-10-31T13:20:08;16.53;73.69
65378;SHT31;51982;51.042;13.806;2023-10-31T13:22:38;16.48;74.23
65378;SHT31;51982;51.042;13.806;2023-10-31T13:25:04;16.47;74.22
65378;SHT31;51982;51.042;13.806;2023-10-31T13:27:31;16.47;74.16
65378;SHT31;51982;51.042;13.806;2023-10-31T13:29:57;16.47;74.20
65378;SHT31;51982;51.042;13.806;2023-10-31T13:32:22;16.48;74.14
65378;SHT31;51982;51.042;13.806;2023-10-31T13:34:47;16.50;74.14
65378;SHT31;51982;51.042;13.806;2023-10-31T13:37:13;16.48;74.00
65378;SHT31;51982;51.042;13.806;2023-10-31T13:39:38;16.50;74.19
65378;SHT31;51982;51.042;13.806;2023-10-31T13:42:04;16.47;74.09
65378;SHT31;51982;51.042;13.806;2023-10-31T13:44:29;16.46;73.88
65378;SHT31;51982;51.042;13.806;2023-10-31T13:46:54;16.46;73.86
65378;SHT31;51982;51.042;13.806;2023-10-31T13:49:19;16.43;73.77
65378;SHT31;51982;51.042;13.806;2023-10-31T13:51:46;16.44;74.08
65378;SHT31;51982;51.042;13.806;2023-10-31T13:54:11;16.46;74.12
65378;SHT31;51982;51.042;13.806;2023-10-31T13:56:37;16.47;74.06
65378;SHT31;51982;51.042;13.806;2023-10-31T13:59:02;16.43;74.34
65378;SHT31;51982;51.042;13.806;2023-10-31T14:01:27;16.41;74.99
65378;SHT31;51982;51.042;13.806;2023-10-31T14:03:56;16.40;75.06
65378;SHT31;51982;51.042;13.806;2023-10-31T14:06:22;16.38;75.02
65378;SHT31;51982;51.042;13.806;2023-10-31T14:08:47;16.38;75.47
65378;SHT31;51982;51.042;13.806;2023-10-31T14:11:12;16.31;75.63
65378;SHT31;51982;51.042;13.806;2023-10-31T14:13:38;16.31;75.67
65378;SHT31;51982;51.042;13.806;2023-10-31T14:16:03;16.24;75.81
65378;SHT31;51982;51.042;13.806;2023-10-31T14:18:29;16.24;75.97
65378;SHT31;51982;51.042;13.806;2023-10-31T14:20:54;16.27;76.02
65378;SHT31;51982;51.042;13.806;2023-10-31T14:23:20;16.27;76.04
65378;SHT31;51982;51.042;13.806;2023-10-31T14:25:45;16.27;76.05
65378;SHT31;51982;51.042;13.806;2023-10-31T14:28:10;16.30;76.03
65378;SHT31;51982;51.042;13.806;2023-10-31T14:30:35;16.28;76.02
65378;SHT31;51982;51.042;13.806;2023-10-31T14:33:01;16.28;75.98
65378;SHT31;51982;51.042;13.806;2023-10-31T14:35:26;16.27;76.06
65378;SHT31;51982;51.042;13.806;2023-10-31T14:37:51;16.27;76.07
65378;SHT31;51982;51.042;13.806;2023-10-31T14:40:16;16.27;76.08
65378;SHT31;51982;51.042;13.806;2023-10-31T14:42:42;16.28;76.17
65378;SHT31;51982;51.042;13.806;2023-10-31T14:45:08;16.26;75.97
65378;SHT31;51982;51.042;13.806;2023-10-31T14:47:33;16.21;76.12
65378;SHT31;51982;51.042;13.806;2023-10-31T14:49:58;16.18;76.16
65378;SHT31;51982;51.042;13.806;2023-10-31T14:52:24;16.18;75.99
65378;SHT31;51982;51.042;13.806;2023-10-31T14:54:49;16.14;75.97
65378;SHT31;51982;51.042;13.806;2023-10-31T14:57:14;16.16;76.10
65378;SHT31;51982;51.042;13.806;2023-10-31T14:59:40;16.14;75.97
65378;SHT31;51982;51.042;13.806;2023-10-31T15:02:06;16.16;75.78
65378;SHT31;51982;51.042;13.806;2023-10-31T15:04:31;16.16;75.90
65378;SHT31;51982;51.042;13.806;2023-10-31T15:06:56;16.07;75.77
65378;SHT31;51982;51.042;13.806;2023-10-31T15:09:22;16.09;75.59